createdAt,value
2022-11-29T00:00:24.957Z,991.16
2022-11-29T00:01:24.954Z,991.15
2022-11-29T00:02:25.040Z,991.13
2022-11-29T00:03:24.986Z,991.08
2022-11-29T00:04:24.971Z,991.03
2022-11-29T00:05:24.943Z,991.08
2022-11-29T00:06:24.939Z,991.12
2022-11-29T00:07:24.991Z,991.08
2022-11-29T00:08:24.913Z,991.02
2022-11-29T00:09:24.906Z,991.06
2022-11-29T00:10:24.885Z,991.05
2022-11-29T00:11:24.921Z,991.07
2022-11-29T00:12:24.894Z,991.01
2022-11-29T00:13:24.882Z,991.04
2022-11-29T00:14:24.874Z,991.01
2022-11-29T00:15:24.869Z,991.01
2022-11-29T00:16:24.942Z,990.99
2022-11-29T00:17:24.863Z,990.99
2022-11-29T00:18:24.849Z,991.03
2022-11-29T00:19:24.869Z,990.97
2022-11-29T00:20:24.847Z,990.94
2022-11-29T00:21:24.853Z,990.96
2022-11-29T00:22:24.862Z,990.96
2022-11-29T00:23:24.821Z,990.97
2022-11-29T00:24:24.843Z,990.99
2022-11-29T00:25:24.833Z,990.94
2022-11-29T00:26:24.821Z,990.94
2022-11-29T00:27:24.867Z,990.95
2022-11-29T00:28:24.873Z,991.01
2022-11-29T00:29:24.822Z,990.95
2022-11-29T00:30:24.844Z,990.94
2022-11-29T00:31:24.787Z,990.99
2022-11-29T00:32:24.812Z,990.94
2022-11-29T00:33:24.816Z,990.95
2022-11-29T00:34:24.769Z,991.01
2022-11-29T00:35:24.771Z,990.96
2022-11-29T00:36:24.772Z,990.99
2022-11-29T00:37:24.833Z,990.95
2022-11-29T00:38:24.799Z,990.99
2022-11-29T00:39:24.755Z,990.93
2022-11-29T00:40:24.772Z,991.00
2022-11-29T00:41:24.737Z,991.04
2022-11-29T00:42:24.746Z,991.04
2022-11-29T00:43:24.729Z,991.01
2022-11-29T00:44:24.730Z,991.02
2022-11-29T00:45:24.799Z,990.97
2022-11-29T00:46:24.821Z,990.98
2022-11-29T00:47:24.730Z,990.98
2022-11-29T00:48:24.705Z,990.98
2022-11-29T00:49:24.738Z,990.97
2022-11-29T00:50:24.691Z,990.95
2022-11-29T00:51:24.691Z,990.97
2022-11-29T00:52:24.687Z,990.94
2022-11-29T00:53:24.697Z,990.99
2022-11-29T00:54:24.697Z,990.93
2022-11-29T00:55:24.681Z,990.95
2022-11-29T00:56:24.676Z,990.96
2022-11-29T00:57:24.666Z,990.98
2022-11-29T00:58:24.674Z,990.95
2022-11-29T00:59:24.671Z,990.98
2022-11-29T01:00:24.653Z,990.92
2022-11-29T01:01:24.772Z,990.95
2022-11-29T01:02:24.684Z,990.95
2022-11-29T01:03:24.680Z,990.95
2022-11-29T01:04:24.632Z,991.00
2022-11-29T01:05:24.618Z,990.95
2022-11-29T01:06:24.650Z,990.97
2022-11-29T01:07:24.716Z,990.96
2022-11-29T01:08:24.600Z,991.04
2022-11-29T01:09:24.604Z,991.01
2022-11-29T01:10:24.583Z,991.02
2022-11-29T01:11:24.604Z,991.03
2022-11-29T01:12:24.601Z,990.98
2022-11-29T01:13:24.613Z,990.99
2022-11-29T01:14:24.581Z,990.99
2022-11-29T01:15:24.613Z,990.97
2022-11-29T01:16:24.668Z,990.98
2022-11-29T01:17:24.551Z,991.03
2022-11-29T01:18:24.598Z,990.96
2022-11-29T01:19:24.543Z,991.01
2022-11-29T01:20:24.532Z,991.00
2022-11-29T01:21:24.569Z,991.01
2022-11-29T01:22:24.582Z,991.01
2022-11-29T01:23:24.524Z,991.06
2022-11-29T01:24:24.529Z,991.08
2022-11-29T01:25:24.522Z,991.03
2022-11-29T01:26:24.511Z,991.12
2022-11-29T01:27:24.542Z,991.09
2022-11-29T01:28:24.498Z,991.10
2022-11-29T01:29:24.497Z,991.12
2022-11-29T01:30:24.545Z,991.08
2022-11-29T01:31:24.479Z,991.11
2022-11-29T01:32:24.503Z,991.09
2022-11-29T01:33:24.492Z,991.11
2022-11-29T01:34:24.510Z,991.15
2022-11-29T01:35:24.461Z,991.13
2022-11-29T01:36:24.456Z,991.10
2022-11-29T01:37:24.477Z,991.13
2022-11-29T01:38:24.455Z,991.12
2022-11-29T01:39:24.482Z,991.16
2022-11-29T01:40:24.492Z,991.13
2022-11-29T01:41:24.442Z,991.14
2022-11-29T01:42:24.436Z,991.15
2022-11-29T01:43:24.423Z,991.13
2022-11-29T01:44:24.453Z,991.15
2022-11-29T01:45:24.417Z,991.21
2022-11-29T01:46:24.463Z,991.19
2022-11-29T01:47:24.405Z,991.14
2022-11-29T01:48:24.426Z,991.17
2022-11-29T01:49:24.431Z,991.11
2022-11-29T01:50:24.385Z,991.17
2022-11-29T01:51:24.382Z,991.18
2022-11-29T01:52:24.374Z,991.18
2022-11-29T01:53:24.480Z,991.17
2022-11-29T01:54:24.415Z,991.14
2022-11-29T01:55:24.385Z,991.17
2022-11-29T01:56:25.347Z,991.19
2022-11-29T01:57:24.351Z,991.15
2022-11-29T01:58:24.356Z,991.23
2022-11-29T01:59:24.365Z,991.27
2022-11-29T02:00:24.329Z,991.18
2022-11-29T02:01:24.388Z,991.23
2022-11-29T02:02:25.402Z,991.24
2022-11-29T02:03:24.328Z,991.19
2022-11-29T02:04:24.312Z,991.21
2022-11-29T02:05:24.291Z,991.22
2022-11-29T02:06:24.329Z,991.20
2022-11-29T02:07:24.385Z,991.27
2022-11-29T02:08:24.291Z,991.25
2022-11-29T02:09:25.297Z,991.26
2022-11-29T02:10:24.274Z,991.28
2022-11-29T02:11:24.307Z,991.27
2022-11-29T02:12:24.295Z,991.19
2022-11-29T02:13:24.331Z,991.18
2022-11-29T02:14:24.262Z,991.24
2022-11-29T02:15:24.254Z,991.21
2022-11-29T02:16:24.251Z,991.22
2022-11-29T02:17:24.298Z,991.20
2022-11-29T02:18:24.276Z,991.22
2022-11-29T02:19:24.245Z,991.27
2022-11-29T02:20:24.241Z,991.25
2022-11-29T02:21:24.234Z,991.25
2022-11-29T02:22:24.261Z,991.30
2022-11-29T02:23:24.223Z,991.23
2022-11-29T02:24:24.247Z,991.22
2022-11-29T02:25:24.202Z,991.22
2022-11-29T02:26:24.233Z,991.19
2022-11-29T02:27:24.194Z,991.24
2022-11-29T02:28:24.278Z,991.24
2022-11-29T02:29:24.222Z,991.22
2022-11-29T02:30:24.251Z,991.20
2022-11-29T02:31:24.178Z,991.17
2022-11-29T02:32:24.205Z,991.19
2022-11-29T02:33:24.179Z,991.21
2022-11-29T02:34:24.162Z,991.19
2022-11-29T02:35:24.177Z,991.23
2022-11-29T02:36:24.139Z,991.19
2022-11-29T02:37:24.119Z,991.26
2022-11-29T02:38:24.177Z,991.20
2022-11-29T02:39:24.193Z,991.21
2022-11-29T02:40:24.125Z,991.18
2022-11-29T02:41:24.120Z,991.16
2022-11-29T02:42:24.130Z,991.19
2022-11-29T02:43:24.094Z,991.18
2022-11-29T02:44:24.135Z,991.19
2022-11-29T02:45:24.094Z,991.20
2022-11-29T02:46:24.137Z,991.19
2022-11-29T02:47:24.092Z,991.25
2022-11-29T02:48:24.125Z,991.20
2022-11-29T02:49:24.071Z,991.17
2022-11-29T02:50:24.082Z,991.22
2022-11-29T02:51:24.098Z,991.23
2022-11-29T02:52:24.038Z,991.23
2022-11-29T02:53:24.069Z,991.22
2022-11-29T02:54:24.088Z,991.24
2022-11-29T02:55:24.056Z,991.19
2022-11-29T02:56:24.074Z,991.22
2022-11-29T02:57:24.013Z,991.19
2022-11-29T02:58:24.020Z,991.21
2022-11-29T02:59:24.026Z,991.23
2022-11-29T03:00:24.008Z,991.21
2022-11-29T03:01:25.081Z,991.24
2022-11-29T03:02:24.033Z,991.34
2022-11-29T03:03:24.045Z,991.26
2022-11-29T03:04:23.999Z,991.30
2022-11-29T03:05:23.972Z,991.32
2022-11-29T03:06:23.974Z,991.32
2022-11-29T03:07:24.039Z,991.31
2022-11-29T03:08:23.979Z,991.30
2022-11-29T03:09:24.033Z,991.32
2022-11-29T03:10:23.941Z,991.34
2022-11-29T03:11:23.948Z,991.39
2022-11-29T03:12:23.961Z,991.38
2022-11-29T03:13:23.965Z,991.37
2022-11-29T03:14:23.915Z,991.40
2022-11-29T03:15:24.048Z,991.40
2022-11-29T03:16:23.946Z,991.36
2022-11-29T03:17:23.944Z,991.32
2022-11-29T03:18:23.922Z,991.41
2022-11-29T03:19:23.922Z,991.43
2022-11-29T03:20:23.898Z,991.41
2022-11-29T03:21:23.899Z,991.38
2022-11-29T03:22:23.884Z,991.42
2022-11-29T03:23:23.909Z,991.46
2022-11-29T03:24:23.896Z,991.42
2022-11-29T03:25:23.937Z,991.42
2022-11-29T03:26:23.884Z,991.41
2022-11-29T03:27:23.861Z,991.46
2022-11-29T03:28:23.886Z,991.46
2022-11-29T03:29:23.865Z,991.47
2022-11-29T03:30:23.843Z,991.46
2022-11-29T03:31:23.884Z,991.52
2022-11-29T03:32:23.840Z,991.50
2022-11-29T03:33:23.851Z,991.48
2022-11-29T03:34:23.864Z,991.53
2022-11-29T03:35:23.844Z,991.53
2022-11-29T03:36:23.820Z,991.53
2022-11-29T03:37:23.825Z,991.52
2022-11-29T03:38:23.838Z,991.54
2022-11-29T03:39:23.819Z,991.56
2022-11-29T03:40:23.982Z,991.47
2022-11-29T03:41:23.811Z,991.54
2022-11-29T03:42:23.805Z,991.49
2022-11-29T03:43:23.785Z,991.52
2022-11-29T03:44:23.774Z,991.49
2022-11-29T03:45:23.800Z,991.53
2022-11-29T03:46:23.807Z,991.48
2022-11-29T03:47:23.791Z,991.52
2022-11-29T03:48:23.755Z,991.52
2022-11-29T03:49:23.763Z,991.51
2022-11-29T03:50:23.766Z,991.51
2022-11-29T03:51:23.728Z,991.53
2022-11-29T03:52:24.739Z,991.53
2022-11-29T03:53:23.728Z,991.52
2022-11-29T03:54:23.741Z,991.56
2022-11-29T03:55:23.745Z,991.50
2022-11-29T03:56:23.711Z,991.55
2022-11-29T03:57:23.703Z,991.57
2022-11-29T03:58:23.713Z,991.56
2022-11-29T03:59:23.735Z,991.53
2022-11-29T04:00:23.719Z,991.53
2022-11-29T04:01:23.687Z,991.56
2022-11-29T04:02:23.747Z,991.58
2022-11-29T04:03:24.307Z,991.56
2022-11-29T04:04:23.692Z,991.58
2022-11-29T04:05:23.667Z,991.58
2022-11-29T04:06:23.673Z,991.57
2022-11-29T04:07:23.680Z,991.54
2022-11-29T04:08:23.696Z,991.58
2022-11-29T04:09:23.654Z,991.57
2022-11-29T04:10:23.669Z,991.57
2022-11-29T04:11:23.638Z,991.55
2022-11-29T04:12:23.642Z,991.57
2022-11-29T04:13:23.634Z,991.61
2022-11-29T04:14:23.635Z,991.65
2022-11-29T04:15:23.621Z,991.68
2022-11-29T04:16:23.652Z,991.65
2022-11-29T04:17:23.639Z,991.65
2022-11-29T04:18:23.629Z,991.65
2022-11-29T04:19:23.636Z,991.64
2022-11-29T04:20:23.602Z,991.67
2022-11-29T04:21:23.596Z,991.66
2022-11-29T04:22:23.588Z,991.72
2022-11-29T04:23:24.378Z,991.67
2022-11-29T04:24:23.603Z,991.67
2022-11-29T04:25:23.563Z,991.69
2022-11-29T04:26:23.562Z,991.70
2022-11-29T04:27:23.553Z,991.77
2022-11-29T04:28:23.578Z,991.79
2022-11-29T04:29:23.594Z,991.80
2022-11-29T04:30:23.539Z,991.78
2022-11-29T04:31:23.595Z,991.79
2022-11-29T04:32:23.537Z,991.77
2022-11-29T04:33:23.536Z,991.80
2022-11-29T04:34:23.558Z,991.79
2022-11-29T04:35:23.559Z,991.76
2022-11-29T04:36:23.529Z,991.79
2022-11-29T04:37:23.521Z,991.82
2022-11-29T04:38:23.488Z,991.81
2022-11-29T04:39:23.505Z,991.84
2022-11-29T04:40:23.504Z,991.79
2022-11-29T04:41:23.503Z,991.87
2022-11-29T04:42:23.512Z,991.84
2022-11-29T04:43:23.508Z,991.86
2022-11-29T04:44:23.482Z,991.87
2022-11-29T04:45:23.485Z,991.90
2022-11-29T04:46:23.505Z,991.84
2022-11-29T04:47:23.453Z,991.88
2022-11-29T04:48:23.453Z,991.93
2022-11-29T04:49:23.440Z,991.90
2022-11-29T04:50:23.447Z,991.91
2022-11-29T04:51:23.462Z,991.93
2022-11-29T04:52:23.444Z,991.96
2022-11-29T04:53:23.448Z,991.94
2022-11-29T04:54:23.417Z,991.96
2022-11-29T04:55:30.528Z,991.94
2022-11-29T04:56:25.574Z,991.96
2022-11-29T04:57:23.432Z,992.01
2022-11-29T04:58:23.396Z,991.98
2022-11-29T04:59:23.443Z,991.99
2022-11-29T05:00:23.386Z,991.95
2022-11-29T05:01:23.520Z,992.00
2022-11-29T05:02:23.438Z,992.05
2022-11-29T05:03:23.404Z,992.02
2022-11-29T05:04:23.369Z,992.03
2022-11-29T05:05:23.359Z,992.06
2022-11-29T05:06:23.374Z,992.06
2022-11-29T05:07:23.479Z,992.02
2022-11-29T05:08:23.349Z,992.10
2022-11-29T05:09:23.338Z,992.08
2022-11-29T05:10:23.355Z,992.06
2022-11-29T05:11:26.673Z,992.13
2022-11-29T05:12:24.377Z,992.17
2022-11-29T05:13:23.312Z,992.09
2022-11-29T05:14:23.312Z,992.09
2022-11-29T05:15:23.314Z,992.10
2022-11-29T05:16:23.353Z,992.10
2022-11-29T05:17:23.359Z,992.13
2022-11-29T05:18:23.290Z,992.15
2022-11-29T05:19:23.283Z,992.09
2022-11-29T05:20:23.293Z,992.12
2022-11-29T05:21:23.280Z,992.11
2022-11-29T05:22:23.294Z,992.15
2022-11-29T05:23:23.299Z,992.14
2022-11-29T05:24:23.256Z,992.16
2022-11-29T05:25:23.351Z,992.10
2022-11-29T05:26:23.243Z,992.14
2022-11-29T05:27:23.242Z,992.18
2022-11-29T05:28:23.254Z,992.15
2022-11-29T05:29:23.256Z,992.13
2022-11-29T05:30:23.243Z,992.20
2022-11-29T05:31:23.262Z,992.16
2022-11-29T05:32:23.206Z,992.14
2022-11-29T05:33:23.384Z,992.15
2022-11-29T05:34:23.233Z,992.21
2022-11-29T05:35:23.231Z,992.21
2022-11-29T05:36:23.189Z,992.23
2022-11-29T05:37:23.208Z,992.28
2022-11-29T05:38:23.213Z,992.33
2022-11-29T05:39:23.220Z,992.33
2022-11-29T05:40:23.208Z,992.34
2022-11-29T05:41:23.199Z,992.35
2022-11-29T05:42:23.158Z,992.37
2022-11-29T05:43:23.163Z,992.38
2022-11-29T05:44:23.206Z,992.36
2022-11-29T05:45:23.179Z,992.37
2022-11-29T05:46:23.196Z,992.44
2022-11-29T05:47:26.883Z,992.42
2022-11-29T05:48:25.216Z,992.41
2022-11-29T05:49:23.145Z,992.39
2022-11-29T05:50:23.126Z,992.41
2022-11-29T05:51:23.152Z,992.45
2022-11-29T05:52:23.106Z,992.44
2022-11-29T05:53:23.112Z,992.46
2022-11-29T05:54:23.111Z,992.47
2022-11-29T05:55:23.093Z,992.51
2022-11-29T05:56:23.116Z,992.50
2022-11-29T05:57:23.103Z,992.52
2022-11-29T05:58:28.595Z,992.50
2022-11-29T05:59:25.072Z,992.55
2022-11-29T06:00:23.109Z,992.55
2022-11-29T06:01:23.142Z,992.55
2022-11-29T06:02:23.152Z,992.59
2022-11-29T06:03:23.078Z,992.57
2022-11-29T06:04:23.068Z,992.59
2022-11-29T06:05:23.050Z,992.61
2022-11-29T06:06:23.086Z,992.55
2022-11-29T06:07:23.106Z,992.60
2022-11-29T06:08:23.024Z,992.63
2022-11-29T06:09:23.037Z,992.67
2022-11-29T06:10:23.052Z,992.59
2022-11-29T06:11:23.012Z,992.62
2022-11-29T06:12:23.043Z,992.63
2022-11-29T06:13:23.028Z,992.64
2022-11-29T06:14:23.037Z,992.60
2022-11-29T06:15:23.004Z,992.64
2022-11-29T06:16:23.057Z,992.69
2022-11-29T06:17:22.989Z,992.71
2022-11-29T06:18:22.990Z,992.70
2022-11-29T06:19:23.015Z,992.68
2022-11-29T06:20:22.979Z,992.72
2022-11-29T06:21:22.962Z,992.66
2022-11-29T06:22:22.972Z,992.64
2022-11-29T06:23:22.957Z,992.70
2022-11-29T06:24:25.919Z,992.72
2022-11-29T06:25:23.951Z,992.69
2022-11-29T06:26:23.003Z,992.69
2022-11-29T06:27:22.944Z,992.74
2022-11-29T06:28:22.964Z,992.75
2022-11-29T06:29:22.925Z,992.71
2022-11-29T06:30:22.925Z,992.72
2022-11-29T06:31:22.996Z,992.77
2022-11-29T06:32:22.914Z,992.72
2022-11-29T06:33:22.922Z,992.72
2022-11-29T06:34:27.588Z,992.72
2022-11-29T06:35:24.946Z,992.74
2022-11-29T06:36:22.919Z,992.72
2022-11-29T06:37:22.889Z,992.71
2022-11-29T06:38:22.896Z,992.73
2022-11-29T06:39:22.879Z,992.76
2022-11-29T06:40:22.887Z,992.78
2022-11-29T06:41:22.900Z,992.72
2022-11-29T06:42:22.849Z,992.84
2022-11-29T06:43:22.909Z,992.77
2022-11-29T06:44:22.872Z,992.83
2022-11-29T06:45:22.886Z,992.87
2022-11-29T06:46:22.871Z,992.83
2022-11-29T06:47:22.917Z,992.82
2022-11-29T06:48:22.835Z,992.84
2022-11-29T06:49:22.829Z,992.88
2022-11-29T06:50:22.834Z,992.82
2022-11-29T06:51:22.826Z,992.91
2022-11-29T06:52:22.833Z,992.86
2022-11-29T06:53:23.837Z,992.87
2022-11-29T06:54:22.808Z,992.87
2022-11-29T06:55:22.818Z,992.94
2022-11-29T06:56:22.807Z,992.89
2022-11-29T06:57:22.814Z,992.91
2022-11-29T06:58:22.796Z,992.95
2022-11-29T06:59:22.774Z,992.94
2022-11-29T07:00:22.763Z,992.92
2022-11-29T07:01:22.841Z,992.90
2022-11-29T07:02:22.800Z,992.97
2022-11-29T07:03:22.773Z,992.94
2022-11-29T07:04:22.779Z,993.03
2022-11-29T07:05:22.762Z,992.98
2022-11-29T07:06:22.734Z,992.97
2022-11-29T07:07:22.774Z,992.99
2022-11-29T07:08:22.751Z,992.96
2022-11-29T07:09:22.720Z,993.02
2022-11-29T07:10:22.756Z,992.96
2022-11-29T07:11:22.809Z,993.01
2022-11-29T07:12:22.697Z,993.01
2022-11-29T07:13:22.726Z,993.06
2022-11-29T07:14:22.692Z,993.07
2022-11-29T07:15:22.713Z,993.09
2022-11-29T07:16:22.883Z,993.10
2022-11-29T07:17:22.685Z,993.09
2022-11-29T07:18:22.691Z,993.10
2022-11-29T07:19:22.688Z,993.11
2022-11-29T07:20:22.657Z,993.14
2022-11-29T07:21:22.647Z,993.16
2022-11-29T07:22:22.655Z,993.10
2022-11-29T07:23:22.691Z,993.14
2022-11-29T07:24:22.679Z,993.17
2022-11-29T07:25:22.636Z,993.18
2022-11-29T07:26:22.678Z,993.10
2022-11-29T07:27:22.634Z,993.15
2022-11-29T07:28:22.650Z,993.11
2022-11-29T07:29:22.615Z,993.14
2022-11-29T07:30:22.615Z,993.13
2022-11-29T07:31:22.727Z,993.19
2022-11-29T07:32:22.596Z,993.09
2022-11-29T07:33:22.595Z,993.14
2022-11-29T07:34:22.629Z,993.12
2022-11-29T07:35:22.614Z,993.14
2022-11-29T07:36:22.667Z,993.16
2022-11-29T07:37:22.603Z,993.18
2022-11-29T07:38:22.558Z,993.18
2022-11-29T07:39:22.569Z,993.16
2022-11-29T07:40:22.563Z,993.22
2022-11-29T07:41:22.585Z,993.23
2022-11-29T07:42:22.536Z,993.21
2022-11-29T07:43:22.555Z,993.20
2022-11-29T07:44:22.567Z,993.23
2022-11-29T07:45:22.526Z,993.22
2022-11-29T07:46:22.664Z,993.24
2022-11-29T07:47:22.542Z,993.25
2022-11-29T07:48:22.546Z,993.28
2022-11-29T07:49:22.606Z,993.29
2022-11-29T07:50:22.520Z,993.32
2022-11-29T07:51:22.484Z,993.31
2022-11-29T07:52:22.494Z,993.27
2022-11-29T07:53:22.528Z,993.35
2022-11-29T07:54:22.492Z,993.31
2022-11-29T07:55:22.502Z,993.33
2022-11-29T07:56:22.485Z,993.33
2022-11-29T07:57:22.459Z,993.31
2022-11-29T07:58:22.512Z,993.43
2022-11-29T07:59:22.448Z,993.42
2022-11-29T08:00:22.444Z,993.40
2022-11-29T08:01:22.510Z,993.45
2022-11-29T08:02:22.500Z,993.39
2022-11-29T08:03:22.616Z,993.40
2022-11-29T08:04:22.463Z,993.47
2022-11-29T08:05:22.426Z,993.50
2022-11-29T08:06:22.409Z,993.44
2022-11-29T08:07:22.425Z,993.41
2022-11-29T08:08:22.393Z,993.46
2022-11-29T08:09:22.391Z,993.53
2022-11-29T08:10:22.416Z,993.49
2022-11-29T08:11:22.431Z,993.48
2022-11-29T08:12:22.398Z,993.46
2022-11-29T08:13:22.396Z,993.52
2022-11-29T08:14:22.391Z,993.49
2022-11-29T08:15:22.464Z,993.58
2022-11-29T08:16:22.400Z,993.55
2022-11-29T08:17:22.361Z,993.50
2022-11-29T08:18:22.467Z,993.59
2022-11-29T08:19:22.506Z,993.54
2022-11-29T08:20:22.408Z,993.63
2022-11-29T08:21:22.368Z,993.60
2022-11-29T08:22:22.334Z,993.62
2022-11-29T08:23:22.328Z,993.62
2022-11-29T08:24:22.323Z,993.63
2022-11-29T08:25:22.316Z,993.64
2022-11-29T08:26:25.549Z,993.55
2022-11-29T08:27:23.328Z,993.59
2022-11-29T08:28:22.315Z,993.60
2022-11-29T08:29:22.386Z,993.54
2022-11-29T08:30:22.302Z,993.58
2022-11-29T08:31:22.310Z,993.59
2022-11-29T08:32:22.308Z,993.59
2022-11-29T08:33:22.289Z,993.58
2022-11-29T08:34:22.259Z,993.62
2022-11-29T08:35:22.274Z,993.60
2022-11-29T08:36:22.265Z,993.61
2022-11-29T08:37:22.295Z,993.61
2022-11-29T08:38:22.257Z,993.63
2022-11-29T08:39:22.278Z,993.61
2022-11-29T08:40:22.262Z,993.68
2022-11-29T08:41:22.229Z,993.63
2022-11-29T08:42:22.292Z,993.70
2022-11-29T08:43:22.225Z,993.63
2022-11-29T08:44:22.273Z,993.69
2022-11-29T08:45:22.286Z,993.70
2022-11-29T08:46:22.215Z,993.72
2022-11-29T08:47:22.214Z,993.73
2022-11-29T08:48:22.247Z,993.75
2022-11-29T08:49:22.236Z,993.76
2022-11-29T08:50:22.184Z,993.74
2022-11-29T08:51:22.191Z,993.69
2022-11-29T08:52:22.176Z,993.76
2022-11-29T08:53:22.193Z,993.76
2022-11-29T08:54:22.165Z,993.77
2022-11-29T08:55:22.175Z,993.81
2022-11-29T08:57:39.669Z,993.86
2022-11-29T08:58:24.188Z,993.83
2022-11-29T08:59:22.142Z,993.86
2022-11-29T09:00:22.160Z,993.87
2022-11-29T09:01:22.230Z,993.85
2022-11-29T09:02:22.174Z,993.85
2022-11-29T09:03:22.176Z,993.90
2022-11-29T09:04:22.148Z,993.87
2022-11-29T09:05:22.116Z,993.93
2022-11-29T09:06:22.128Z,993.84
2022-11-29T09:07:22.169Z,993.90
2022-11-29T09:08:22.146Z,993.88
2022-11-29T09:09:22.129Z,993.91
2022-11-29T09:10:22.146Z,993.95
2022-11-29T09:11:22.092Z,993.96
2022-11-29T09:12:22.104Z,994.00
2022-11-29T09:13:22.087Z,993.98
2022-11-29T09:14:22.082Z,993.99
2022-11-29T09:15:22.123Z,993.99
2022-11-29T09:16:22.074Z,994.01
2022-11-29T09:17:22.120Z,993.99
2022-11-29T09:18:22.090Z,994.03
2022-11-29T09:19:22.053Z,994.05
2022-11-29T09:20:22.073Z,994.07
2022-11-29T09:21:22.110Z,994.06
2022-11-29T09:22:22.065Z,994.09
2022-11-29T09:23:22.560Z,994.08
2022-11-29T09:24:22.022Z,994.12
2022-11-29T09:25:23.019Z,994.12
2022-11-29T09:26:22.008Z,994.12
2022-11-29T09:27:22.039Z,994.15
2022-11-29T09:28:22.017Z,994.09
2022-11-29T09:29:21.998Z,994.11
2022-11-29T09:30:23.747Z,994.14
2022-11-29T09:31:23.021Z,994.18
2022-11-29T09:32:22.000Z,994.21
2022-11-29T09:33:22.085Z,994.20
2022-11-29T09:34:21.997Z,994.23
2022-11-29T09:35:21.989Z,994.20
2022-11-29T09:36:27.900Z,994.18
2022-11-29T09:37:23.981Z,994.17
2022-11-29T09:38:21.987Z,994.16
2022-11-29T09:39:21.962Z,994.19
2022-11-29T09:40:22.012Z,994.23
2022-11-29T09:41:22.297Z,994.21
2022-11-29T09:42:21.928Z,994.28
2022-11-29T09:43:21.953Z,994.19
2022-11-29T09:44:21.997Z,994.23
2022-11-29T09:45:21.928Z,994.19
2022-11-29T09:46:21.969Z,994.24
2022-11-29T09:47:21.910Z,994.25
2022-11-29T09:48:21.927Z,994.23
2022-11-29T09:49:21.938Z,994.24
2022-11-29T09:50:21.910Z,994.21
2022-11-29T09:51:21.893Z,994.26
2022-11-29T09:52:21.896Z,994.26
2022-11-29T09:53:21.905Z,994.21
2022-11-29T09:54:21.869Z,994.26
2022-11-29T09:55:21.895Z,994.27
2022-11-29T09:56:21.861Z,994.25
2022-11-29T09:57:21.851Z,994.22
2022-11-29T09:58:21.856Z,994.29
2022-11-29T09:59:21.843Z,994.25
2022-11-29T10:00:21.854Z,994.27
2022-11-29T10:01:22.872Z,994.31
2022-11-29T10:02:22.211Z,994.33
2022-11-29T10:03:21.819Z,994.30
2022-11-29T10:04:21.826Z,994.30
2022-11-29T10:05:21.846Z,994.29
2022-11-29T10:06:21.832Z,994.33
2022-11-29T10:07:21.889Z,994.31
2022-11-29T10:08:21.802Z,994.30
2022-11-29T10:09:21.784Z,994.32
2022-11-29T10:10:21.794Z,994.29
2022-11-29T10:11:21.802Z,994.32
2022-11-29T10:12:21.783Z,994.37
2022-11-29T10:13:21.766Z,994.30
2022-11-29T10:14:21.898Z,994.36
2022-11-29T10:15:21.762Z,994.35
2022-11-29T10:16:21.796Z,994.43
2022-11-29T10:17:21.745Z,994.39
2022-11-29T10:18:21.737Z,994.36
2022-11-29T10:19:21.776Z,994.36
2022-11-29T10:20:21.755Z,994.36
2022-11-29T10:21:21.744Z,994.38
2022-11-29T10:22:21.751Z,994.34
2022-11-29T10:23:21.718Z,994.40
2022-11-29T10:24:21.740Z,994.37
2022-11-29T10:25:21.809Z,994.39
2022-11-29T10:26:21.704Z,994.39
2022-11-29T10:27:21.743Z,994.37
2022-11-29T10:28:21.700Z,994.39
2022-11-29T10:29:21.690Z,994.39
2022-11-29T10:30:21.701Z,994.40
2022-11-29T10:31:21.677Z,994.42
2022-11-29T10:32:21.711Z,994.42
2022-11-29T10:33:21.693Z,994.45
2022-11-29T10:34:21.679Z,994.43
2022-11-29T10:35:21.687Z,994.45
2022-11-29T10:36:21.666Z,994.45
2022-11-29T10:37:21.675Z,994.44
2022-11-29T10:38:30.685Z,994.41
2022-11-29T10:39:23.683Z,994.44
2022-11-29T10:40:21.644Z,994.48
2022-11-29T10:41:21.629Z,994.43
2022-11-29T10:42:22.650Z,994.49
2022-11-29T10:43:21.695Z,994.48
2022-11-29T10:44:21.623Z,994.48
2022-11-29T10:45:21.663Z,994.54
2022-11-29T10:46:21.685Z,994.45
2022-11-29T10:47:21.611Z,994.50
2022-11-29T10:48:21.625Z,994.48
2022-11-29T10:49:21.594Z,994.47
2022-11-29T10:50:21.587Z,994.51
2022-11-29T10:51:21.613Z,994.45
2022-11-29T10:52:21.716Z,994.50
2022-11-29T10:53:21.588Z,994.51
2022-11-29T10:54:21.583Z,994.43
2022-11-29T10:55:21.575Z,994.53
2022-11-29T10:56:21.821Z,994.49
2022-11-29T10:57:21.946Z,994.53
2022-11-29T10:58:27.491Z,994.55
2022-11-29T10:59:23.559Z,994.55
2022-11-29T11:00:21.561Z,994.49
2022-11-29T11:01:21.738Z,994.53
2022-11-29T11:02:21.567Z,994.51
2022-11-29T11:03:21.543Z,994.56
2022-11-29T11:04:21.533Z,994.50
2022-11-29T11:05:21.551Z,994.51
2022-11-29T11:06:21.582Z,994.55
2022-11-29T11:07:21.579Z,994.52
2022-11-29T11:08:21.507Z,994.52
2022-11-29T11:09:21.527Z,994.52
2022-11-29T11:10:21.509Z,994.53
2022-11-29T11:11:21.516Z,994.52
2022-11-29T11:12:21.557Z,994.50
2022-11-29T11:13:21.494Z,994.48
2022-11-29T11:14:21.470Z,994.48
2022-11-29T11:15:21.482Z,994.46
2022-11-29T11:16:21.533Z,994.58
2022-11-29T11:17:21.581Z,994.54
2022-11-29T11:18:21.497Z,994.57
2022-11-29T11:19:21.471Z,994.58
2022-11-29T11:20:21.485Z,994.51
2022-11-29T11:21:21.491Z,994.53
2022-11-29T11:22:21.436Z,994.57
2022-11-29T11:23:21.459Z,994.57
2022-11-29T11:24:21.437Z,994.55
2022-11-29T11:25:21.493Z,994.59
2022-11-29T11:26:21.498Z,994.57
2022-11-29T11:27:21.417Z,994.52
2022-11-29T11:28:21.426Z,994.59
2022-11-29T11:29:21.426Z,994.61
2022-11-29T11:30:21.439Z,994.58
2022-11-29T11:31:21.617Z,994.61
2022-11-29T11:32:21.432Z,994.64
2022-11-29T11:33:21.403Z,994.64
2022-11-29T11:34:21.433Z,994.65
2022-11-29T11:35:21.466Z,994.64
2022-11-29T11:36:21.409Z,994.68
2022-11-29T11:37:21.441Z,994.71
2022-11-29T11:38:21.379Z,994.65
2022-11-29T11:39:21.384Z,994.66
2022-11-29T11:40:21.413Z,994.69
2022-11-29T11:41:21.378Z,994.68
2022-11-29T11:42:21.339Z,994.71
2022-11-29T11:43:21.393Z,994.69
2022-11-29T11:44:45.714Z,994.69
2022-11-29T11:45:23.348Z,994.73
2022-11-29T11:46:21.368Z,994.76
2022-11-29T11:47:21.380Z,994.79
2022-11-29T11:48:21.360Z,994.77
2022-11-29T11:49:21.337Z,994.77
2022-11-29T11:50:21.309Z,994.75
2022-11-29T11:51:21.345Z,994.77
2022-11-29T11:52:21.342Z,994.79
2022-11-29T11:53:21.335Z,994.84
2022-11-29T11:54:21.303Z,994.78
2022-11-29T11:55:21.280Z,994.81
2022-11-29T11:56:21.297Z,994.78
2022-11-29T11:57:21.286Z,994.74
2022-11-29T11:58:21.298Z,994.84
2022-11-29T11:59:21.292Z,994.79
2022-11-29T12:00:40.599Z,994.83
2022-11-29T12:01:23.325Z,994.79
2022-11-29T12:02:21.273Z,994.76
2022-11-29T12:03:21.272Z,994.76
2022-11-29T12:04:21.280Z,994.79
2022-11-29T12:05:21.254Z,994.79
2022-11-29T12:06:21.337Z,994.77
2022-11-29T12:07:29.707Z,994.80
2022-11-29T12:08:23.270Z,994.82
2022-11-29T12:09:21.251Z,994.76
2022-11-29T12:10:21.233Z,994.82
2022-11-29T12:11:21.222Z,994.76
2022-11-29T12:12:21.249Z,994.83
2022-11-29T12:13:21.215Z,994.79
2022-11-29T12:14:21.232Z,994.79
2022-11-29T12:15:21.213Z,994.81
2022-11-29T12:16:21.239Z,994.87
2022-11-29T12:17:21.225Z,994.83
2022-11-29T12:18:21.307Z,994.85
2022-11-29T12:19:21.185Z,994.85
2022-11-29T12:20:21.200Z,994.84
2022-11-29T12:21:21.184Z,994.85
2022-11-29T12:22:21.188Z,994.82
2022-11-29T12:23:21.214Z,994.89
2022-11-29T12:24:21.142Z,994.84
2022-11-29T12:25:21.213Z,994.90
2022-11-29T12:26:54.836Z,994.92
2022-11-29T12:27:23.135Z,994.88
2022-11-29T12:28:21.194Z,994.91
2022-11-29T12:29:21.118Z,994.95